createdAt,value
2022-12-17T00:01:54.757Z,106.47
2022-12-17T00:04:41.508Z,90.18
2022-12-17T00:07:28.440Z,88.50
2022-12-17T00:10:15.450Z,108.85
2022-12-17T00:13:05.753Z,81.35
2022-12-17T00:15:53.653Z,88.55
2022-12-17T00:18:40.811Z,89.88
2022-12-17T00:21:28.235Z,86.10
2022-12-17T00:24:15.333Z,96.65
2022-12-17T00:27:02.272Z,97.22
2022-12-17T00:29:49.175Z,109.95
2022-12-17T00:32:35.995Z,99.18
2022-12-17T00:35:23.408Z,101.70
2022-12-17T00:38:10.678Z,104.60
2022-12-17T00:40:57.632Z,91.38
2022-12-17T00:43:44.372Z,102.15
2022-12-17T00:46:31.486Z,85.07
2022-12-17T00:49:18.637Z,116.20
2022-12-17T00:52:05.394Z,105.57
2022-12-17T00:54:52.190Z,190.13
2022-12-17T00:57:39.242Z,116.75
2022-12-17T01:00:27.027Z,112.13
2022-12-17T01:03:27.249Z,107.70
2022-12-17T01:06:14.728Z,84.80
2022-12-17T01:09:01.683Z,216.77
2022-12-17T01:11:48.965Z,115.22
2022-12-17T01:14:35.897Z,84.55
2022-12-17T01:17:22.701Z,74.40
2022-12-17T01:20:09.657Z,86.20
2022-12-17T01:22:56.664Z,83.20
2022-12-17T01:25:43.485Z,84.05
2022-12-17T01:28:30.235Z,81.43
2022-12-17T01:31:17.163Z,101.88
2022-12-17T01:34:04.991Z,95.10
2022-12-17T01:36:51.949Z,103.13
2022-12-17T01:39:38.739Z,89.05
2022-12-17T01:42:31.824Z,92.35
2022-12-17T01:45:18.606Z,76.90
2022-12-17T01:48:10.921Z,77.38
2022-12-17T01:51:01.750Z,91.53
2022-12-17T01:53:54.112Z,94.03
2022-12-17T01:56:44.852Z,106.85
2022-12-17T01:59:35.259Z,96.25
2022-12-17T02:02:22.337Z,102.43
2022-12-17T02:05:09.775Z,103.47
2022-12-17T02:08:04.347Z,98.82
2022-12-17T02:10:58.190Z,86.78
2022-12-17T02:13:55.709Z,75.53
2022-12-17T02:16:53.852Z,74.70
2022-12-17T02:20:09.895Z,82.32
2022-12-17T02:23:35.175Z,84.65
2022-12-17T02:26:39.434Z,87.13
2022-12-17T02:29:27.184Z,88.22
2022-12-17T02:32:14.508Z,90.43
2022-12-17T02:35:06.513Z,87.68
2022-12-17T02:37:53.309Z,92.07
2022-12-17T02:40:42.188Z,95.00
2022-12-17T02:43:30.037Z,81.55
2022-12-17T02:46:17.591Z,81.13
2022-12-17T02:49:04.774Z,70.35
2022-12-17T02:51:52.215Z,83.43
2022-12-17T02:54:39.091Z,99.18
2022-12-17T02:57:25.905Z,82.80
2022-12-17T03:00:12.786Z,94.32
2022-12-17T03:03:00.046Z,108.22
2022-12-17T03:05:47.123Z,98.70
2022-12-17T03:08:34.330Z,70.65
2022-12-17T03:11:21.169Z,82.20
2022-12-17T03:14:08.085Z,78.97
2022-12-17T03:16:55.010Z,95.07
2022-12-17T03:19:42.344Z,77.60
2022-12-17T03:22:29.725Z,88.20
2022-12-17T03:25:16.936Z,97.75
2022-12-17T03:28:03.796Z,83.53
2022-12-17T03:30:50.706Z,78.38
2022-12-17T03:33:37.746Z,82.70
2022-12-17T03:36:25.374Z,83.63
2022-12-17T03:39:12.818Z,92.60
2022-12-17T03:42:10.600Z,98.50
2022-12-17T03:44:57.426Z,82.53
2022-12-17T03:47:44.882Z,95.50
2022-12-17T03:50:31.940Z,78.32
2022-12-17T03:53:22.677Z,79.45
2022-12-17T03:56:09.577Z,87.82
2022-12-17T03:58:56.682Z,94.82
2022-12-17T04:01:44.166Z,90.80
2022-12-17T04:04:31.339Z,69.60
2022-12-17T04:07:18.181Z,93.75
2022-12-17T04:10:05.013Z,94.38
2022-12-17T04:12:51.816Z,105.78
2022-12-17T04:15:38.810Z,104.47
2022-12-17T04:18:25.655Z,84.03
2022-12-17T04:21:12.520Z,94.88
2022-12-17T04:23:59.505Z,127.10
2022-12-17T04:26:46.276Z,104.68
2022-12-17T04:29:32.891Z,92.63
2022-12-17T04:32:39.579Z,110.43
2022-12-17T04:35:26.411Z,89.20
2022-12-17T04:38:13.256Z,87.93
2022-12-17T04:41:00.168Z,92.68
2022-12-17T04:43:47.019Z,105.03
2022-12-17T04:46:34.061Z,80.13
2022-12-17T04:49:21.155Z,77.55
2022-12-17T04:52:07.936Z,84.28
2022-12-17T04:54:54.927Z,87.18
2022-12-17T04:57:41.585Z,79.07
2022-12-17T05:00:28.853Z,70.60
2022-12-17T05:03:23.221Z,63.38
2022-12-17T05:06:10.189Z,80.97
2022-12-17T05:08:57.406Z,75.88
2022-12-17T05:11:44.150Z,81.45
2022-12-17T05:14:31.040Z,75.18
2022-12-17T05:17:18.438Z,78.32
2022-12-17T05:20:05.252Z,86.40
2022-12-17T05:22:52.032Z,90.25
2022-12-17T05:25:38.915Z,74.82
2022-12-17T05:28:25.746Z,85.93
2022-12-17T05:31:14.416Z,83.97
2022-12-17T05:34:01.453Z,84.00
2022-12-17T05:36:48.221Z,89.53
2022-12-17T05:39:34.946Z,70.18
2022-12-17T05:42:22.425Z,92.22
2022-12-17T05:45:09.252Z,79.75
2022-12-17T05:47:56.006Z,78.55
2022-12-17T05:50:42.839Z,93.72
2022-12-17T05:53:29.712Z,80.97
2022-12-17T05:56:16.431Z,91.22
2022-12-17T05:59:03.402Z,101.50
2022-12-17T06:01:50.363Z,79.70
2022-12-17T06:04:37.477Z,79.78
2022-12-17T06:07:24.245Z,77.32
2022-12-17T06:10:11.059Z,93.28
2022-12-17T06:12:57.927Z,65.88
2022-12-17T06:15:45.049Z,87.32
2022-12-17T06:18:31.981Z,73.40
2022-12-17T06:21:18.721Z,92.72
2022-12-17T06:24:05.519Z,65.00
2022-12-17T06:26:52.362Z,85.45
2022-12-17T06:29:39.201Z,74.30
2022-12-17T06:32:25.918Z,88.07
2022-12-17T06:35:13.866Z,69.38
2022-12-17T06:38:00.745Z,70.97
2022-12-17T06:40:48.077Z,91.57
2022-12-17T06:43:35.710Z,71.82
2022-12-17T06:46:22.832Z,78.53
2022-12-17T06:49:11.186Z,77.93
2022-12-17T06:51:57.887Z,79.88
2022-12-17T06:54:44.726Z,71.80
2022-12-17T06:57:34.328Z,75.97
2022-12-17T07:00:25.340Z,71.78
2022-12-17T07:03:16.439Z,69.70
2022-12-17T07:06:03.515Z,89.97
2022-12-17T07:08:50.247Z,80.38
2022-12-17T07:11:37.041Z,73.13
2022-12-17T07:14:24.237Z,71.40
2022-12-17T07:17:11.220Z,81.43
2022-12-17T07:19:58.425Z,80.50
2022-12-17T07:22:45.544Z,78.10
2022-12-17T07:25:33.804Z,84.15
2022-12-17T07:28:20.787Z,92.82
2022-12-17T07:31:07.709Z,95.93
2022-12-17T07:33:54.629Z,89.65
2022-12-17T07:36:44.409Z,78.97
2022-12-17T07:39:31.359Z,81.22
2022-12-17T07:42:18.210Z,77.40
2022-12-17T07:45:05.476Z,68.95
2022-12-17T07:47:52.307Z,77.10
2022-12-17T07:50:49.958Z,83.70
2022-12-17T07:53:37.108Z,73.22
2022-12-17T07:56:24.715Z,90.18
2022-12-17T07:59:11.568Z,89.55
2022-12-17T08:01:58.812Z,82.47
2022-12-17T08:04:45.985Z,95.88
2022-12-17T08:07:32.807Z,82.68
2022-12-17T08:10:19.529Z,86.75
2022-12-17T08:13:20.090Z,93.82
2022-12-17T08:16:07.888Z,89.90
2022-12-17T08:18:55.143Z,94.03
2022-12-17T08:21:42.497Z,90.03
2022-12-17T08:24:29.387Z,105.88
2022-12-17T08:27:16.689Z,88.38
2022-12-17T08:30:03.418Z,102.55
2022-12-17T08:32:50.523Z,100.32
2022-12-17T08:35:37.636Z,78.88
2022-12-17T08:38:25.503Z,89.20
2022-12-17T08:41:12.858Z,85.85
2022-12-17T08:43:59.613Z,90.07
2022-12-17T08:46:46.369Z,83.97
2022-12-17T08:49:33.157Z,89.15
2022-12-17T08:52:19.907Z,91.45
2022-12-17T08:55:06.639Z,77.85
2022-12-17T08:57:53.959Z,78.25
2022-12-17T09:00:41.034Z,96.28
2022-12-17T09:03:27.977Z,95.97
2022-12-17T09:06:15.036Z,99.00
2022-12-17T09:09:01.831Z,83.15
2022-12-17T09:11:48.671Z,62.55
2022-12-17T09:14:35.474Z,88.93
2022-12-17T09:17:22.400Z,78.82
2022-12-17T09:20:09.136Z,80.57
2022-12-17T09:22:56.375Z,65.88
2022-12-17T09:25:43.838Z,75.40
2022-12-17T09:28:30.775Z,80.85
2022-12-17T09:31:19.096Z,80.18
2022-12-17T09:34:06.234Z,63.88
2022-12-17T09:36:53.192Z,61.90
2022-12-17T09:39:40.352Z,86.63
2022-12-17T09:42:39.514Z,96.15
2022-12-17T09:45:34.042Z,79.70
2022-12-17T09:48:44.315Z,96.03
2022-12-17T09:51:46.033Z,80.13
2022-12-17T09:55:10.680Z,90.88
2022-12-17T09:57:57.920Z,83.28
2022-12-17T10:00:47.097Z,77.50
2022-12-17T10:03:37.798Z,74.40
2022-12-17T10:06:47.152Z,79.50
2022-12-17T10:09:37.562Z,86.20
2022-12-17T10:12:36.664Z,76.97
2022-12-17T10:15:25.254Z,79.05
2022-12-17T10:18:12.495Z,75.30
2022-12-17T10:21:13.722Z,69.35
2022-12-17T10:24:01.121Z,87.43
2022-12-17T10:26:51.016Z,90.40
2022-12-17T10:29:47.728Z,82.53
2022-12-17T10:32:35.243Z,66.80
2022-12-17T10:35:42.168Z,83.25
2022-12-17T10:38:40.145Z,73.47
2022-12-17T10:41:45.123Z,72.18
2022-12-17T10:44:42.648Z,87.90
2022-12-17T10:47:38.533Z,82.22
2022-12-17T10:50:34.615Z,84.78
2022-12-17T10:53:23.468Z,68.45
2022-12-17T10:56:15.313Z,83.15
2022-12-17T10:59:08.790Z,79.82
2022-12-17T11:02:00.829Z,81.50
2022-12-17T11:04:55.773Z,84.72
2022-12-17T11:07:48.235Z,87.13
2022-12-17T11:10:39.992Z,67.03
2022-12-17T11:13:35.022Z,90.37
2022-12-17T11:16:32.974Z,71.80
2022-12-17T11:19:44.017Z,62.13
2022-12-17T11:22:59.641Z,75.78
2022-12-17T11:25:57.731Z,77.38
2022-12-17T11:28:48.541Z,78.40
2022-12-17T11:32:13.317Z,79.63
2022-12-17T11:35:19.070Z,70.00
2022-12-17T11:38:09.122Z,104.22
2022-12-17T11:40:59.239Z,83.20
2022-12-17T11:43:57.790Z,91.55
2022-12-17T11:47:17.682Z,72.68
2022-12-17T11:50:11.965Z,76.88
2022-12-17T11:53:12.057Z,66.88
2022-12-17T11:56:16.241Z,85.03
2022-12-17T11:59:10.931Z,71.97
2022-12-17T12:02:11.903Z,76.25
2022-12-17T12:05:31.841Z,80.43
2022-12-17T12:08:37.644Z,83.88
2022-12-17T12:11:38.453Z,89.85
2022-12-17T12:14:57.148Z,87.10
2022-12-17T12:18:12.513Z,73.75
2022-12-17T12:21:08.578Z,72.63
2022-12-17T12:24:09.627Z,78.22
2022-12-17T12:27:19.398Z,78.35
2022-12-17T12:30:34.859Z,77.55
2022-12-17T12:34:12.195Z,72.47
2022-12-17T12:37:00.966Z,82.28
2022-12-17T12:40:06.008Z,86.55
2022-12-17T12:43:06.237Z,77.25
2022-12-17T12:46:11.472Z,74.72
2022-12-17T12:49:07.980Z,76.40
2022-12-17T12:51:56.479Z,82.57
2022-12-17T12:55:05.593Z,87.38
2022-12-17T12:57:59.782Z,89.53
2022-12-17T13:00:58.053Z,90.05
2022-12-17T13:03:56.431Z,87.47
2022-12-17T13:07:04.173Z,90.63
2022-12-17T13:09:46.853Z,80.47
2022-12-17T13:12:45.271Z,88.43
2022-12-17T13:15:41.686Z,90.47
2022-12-17T13:18:39.435Z,88.00
2022-12-17T13:21:16.955Z,84.90
2022-12-17T13:23:45.449Z,81.22
2022-12-17T13:26:42.181Z,83.18
2022-12-17T13:29:12.924Z,91.60
2022-12-17T13:31:41.585Z,98.47
2022-12-17T13:34:27.157Z,89.53
2022-12-17T13:37:38.153Z,93.38
2022-12-17T13:40:34.718Z,83.30
2022-12-17T13:43:03.580Z,94.15
2022-12-17T13:45:36.878Z,102.93
2022-12-17T13:48:05.765Z,102.22
2022-12-17T13:50:35.866Z,92.88
2022-12-17T13:53:13.221Z,80.20
2022-12-17T13:55:50.373Z,79.13
2022-12-17T13:58:27.447Z,81.18
2022-12-17T14:01:11.020Z,81.00
2022-12-17T14:04:05.655Z,90.60
2022-12-17T14:06:37.448Z,83.70
2022-12-17T14:09:06.624Z,82.63
2022-12-17T14:11:57.062Z,82.32
2022-12-17T14:14:35.323Z,86.25
2022-12-17T14:17:04.407Z,89.78
2022-12-17T14:19:34.150Z,97.07
2022-12-17T14:22:02.931Z,88.40
2022-12-17T14:24:31.764Z,71.65
2022-12-17T14:27:00.872Z,96.35
2022-12-17T14:29:31.429Z,90.72
2022-12-17T14:32:03.951Z,115.47
2022-12-17T14:34:43.059Z,115.07
2022-12-17T14:37:23.745Z,114.10
2022-12-17T14:39:57.973Z,105.55
2022-12-17T14:42:26.634Z,96.60
2022-12-17T14:45:21.697Z,96.03
2022-12-17T14:48:01.178Z,98.88
2022-12-17T14:50:35.883Z,91.40
2022-12-17T14:53:24.903Z,95.05
2022-12-17T14:55:55.940Z,91.32
2022-12-17T14:58:26.402Z,84.35
2022-12-17T15:01:04.307Z,80.75
2022-12-17T15:03:37.615Z,97.20
2022-12-17T15:06:13.009Z,105.43
2022-12-17T15:08:44.402Z,104.82
2022-12-17T15:11:16.203Z,111.22
2022-12-17T15:13:44.855Z,95.38
2022-12-17T15:16:13.533Z,112.22
2022-12-17T15:18:42.232Z,93.30
2022-12-17T15:21:11.714Z,99.97
2022-12-17T15:23:44.506Z,87.00
2022-12-17T15:26:17.437Z,99.25
2022-12-17T15:28:46.299Z,112.50
2022-12-17T15:31:19.533Z,100.65
2022-12-17T15:33:51.575Z,103.32
2022-12-17T15:36:20.006Z,95.43
2022-12-17T15:38:48.418Z,105.95
2022-12-17T15:41:35.552Z,93.57
2022-12-17T15:44:04.068Z,103.15
2022-12-17T15:46:33.707Z,95.88
2022-12-17T15:49:03.715Z,94.43
2022-12-17T15:51:32.216Z,110.05
2022-12-17T15:54:00.732Z,88.65
2022-12-17T15:56:29.149Z,89.95
2022-12-17T15:58:58.528Z,108.80
2022-12-17T16:01:27.075Z,104.97
2022-12-17T16:03:55.710Z,109.40
2022-12-17T16:06:24.287Z,121.97
2022-12-17T16:08:52.804Z,101.25
2022-12-17T16:11:21.216Z,96.53
2022-12-17T16:13:55.105Z,99.90
2022-12-17T16:16:24.162Z,103.45
2022-12-17T16:18:52.913Z,104.28
2022-12-17T16:21:21.381Z,105.45
2022-12-17T16:23:49.840Z,103.22
2022-12-17T16:26:18.241Z,108.13
2022-12-17T16:28:46.762Z,113.38
2022-12-17T16:31:15.816Z,111.10
2022-12-17T16:33:47.348Z,104.38
2022-12-17T16:36:20.967Z,111.18
2022-12-17T16:38:55.050Z,106.57
2022-12-17T16:41:24.398Z,104.60
2022-12-17T16:43:52.845Z,105.55
2022-12-17T16:46:34.022Z,112.25
2022-12-17T16:49:08.852Z,127.05
2022-12-17T16:51:38.966Z,115.53
2022-12-17T16:54:13.634Z,126.07
2022-12-17T16:56:42.982Z,100.88
2022-12-17T16:59:13.828Z,103.47
2022-12-17T17:01:46.234Z,87.15
2022-12-17T17:04:16.671Z,100.55
2022-12-17T17:06:54.062Z,127.47
2022-12-17T17:09:23.554Z,117.70
2022-12-17T17:11:55.408Z,130.25
2022-12-17T17:14:24.116Z,129.35
2022-12-17T17:16:53.035Z,109.70
2022-12-17T17:19:21.493Z,121.55
2022-12-17T17:21:54.429Z,134.52
2022-12-17T17:24:25.765Z,129.48
2022-12-17T17:26:55.478Z,111.53
2022-12-17T17:29:25.451Z,118.78
2022-12-17T17:32:09.807Z,128.00
2022-12-17T17:34:40.085Z,96.93
2022-12-17T17:37:08.651Z,92.90
2022-12-17T17:39:37.099Z,95.40
2022-12-17T17:42:05.760Z,96.35
2022-12-17T17:44:34.569Z,88.72
2022-12-17T17:47:03.503Z,84.15
2022-12-17T17:49:31.973Z,70.88
2022-12-17T17:52:15.630Z,105.00
2022-12-17T17:54:44.041Z,93.18
2022-12-17T17:57:12.542Z,79.63
2022-12-17T17:59:41.084Z,92.78
2022-12-17T18:02:11.159Z,85.03
2022-12-17T18:04:40.142Z,97.90
2022-12-17T18:07:25.943Z,89.28
2022-12-17T18:09:55.600Z,103.45
2022-12-17T18:12:42.856Z,107.78
2022-12-17T18:15:14.795Z,123.35
2022-12-17T18:17:47.263Z,124.05
2022-12-17T18:20:16.608Z,118.35
2022-12-17T18:22:46.111Z,102.22
2022-12-17T18:25:16.843Z,76.78
2022-12-17T18:27:45.386Z,87.38
2022-12-17T18:30:16.127Z,116.35
2022-12-17T18:32:44.931Z,81.15
2022-12-17T18:35:13.566Z,148.00
2022-12-17T18:37:42.055Z,150.00
2022-12-17T18:40:10.826Z,105.22
2022-12-17T18:42:57.990Z,151.88
2022-12-17T18:45:26.432Z,144.07
2022-12-17T18:47:54.967Z,117.63
2022-12-17T18:50:23.439Z,112.43
2022-12-17T18:52:53.079Z,102.32
2022-12-17T18:55:21.535Z,94.43
2022-12-17T18:57:49.890Z,91.10
2022-12-17T19:00:18.552Z,83.05
2022-12-17T19:02:47.075Z,88.10
2022-12-17T19:05:15.619Z,107.00
2022-12-17T19:07:44.064Z,113.22
2022-12-17T19:10:12.478Z,111.88
2022-12-17T19:12:40.850Z,122.32
2022-12-17T19:15:09.673Z,118.80
2022-12-17T19:17:38.284Z,172.68
2022-12-17T19:20:07.288Z,208.93
2022-12-17T19:22:35.685Z,81.18
2022-12-17T19:25:04.363Z,79.88
2022-12-17T19:27:32.905Z,83.88
2022-12-17T19:30:01.364Z,90.32
2022-12-17T19:32:29.789Z,93.65
2022-12-17T19:34:58.266Z,94.50
2022-12-17T19:37:26.808Z,127.05
2022-12-17T19:39:55.194Z,117.80
2022-12-17T19:42:31.963Z,92.00
2022-12-17T19:45:05.870Z,102.60
2022-12-17T19:47:35.476Z,102.93
2022-12-17T19:50:04.352Z,95.45
2022-12-17T19:52:32.800Z,77.20
2022-12-17T19:55:01.889Z,69.75
2022-12-17T19:57:30.406Z,72.13
2022-12-17T19:59:58.880Z,85.47
2022-12-17T20:02:32.428Z,85.57
2022-12-17T20:05:01.183Z,79.05
2022-12-17T20:07:30.643Z,72.03
2022-12-17T20:09:59.134Z,60.80
2022-12-17T20:12:27.746Z,71.43
2022-12-17T20:14:56.141Z,79.68
2022-12-17T20:17:26.019Z,78.85
2022-12-17T20:19:56.333Z,82.97
2022-12-17T20:22:26.393Z,67.60
2022-12-17T20:24:54.938Z,74.90
2022-12-17T20:27:23.528Z,80.00
2022-12-17T20:29:52.851Z,85.68
2022-12-17T20:32:21.465Z,83.85
2022-12-17T20:34:49.938Z,105.93
2022-12-17T20:37:18.475Z,85.38
2022-12-17T20:39:46.940Z,80.95
2022-12-17T20:42:17.641Z,76.70
2022-12-17T20:44:51.545Z,74.82
2022-12-17T20:47:21.834Z,73.47
2022-12-17T20:49:50.298Z,87.15
2022-12-17T20:52:19.268Z,85.32
2022-12-17T20:54:49.213Z,64.55
2022-12-17T20:57:17.648Z,75.53
2022-12-17T20:59:46.060Z,67.28
2022-12-17T21:02:14.681Z,73.57
2022-12-17T21:04:43.167Z,72.13
2022-12-17T21:07:12.023Z,72.68
2022-12-17T21:09:40.699Z,83.00
2022-12-17T21:12:09.731Z,62.85
2022-12-17T21:14:38.115Z,58.80
2022-12-17T21:17:07.743Z,66.30
2022-12-17T21:19:36.358Z,111.75
2022-12-17T21:22:05.560Z,88.00
2022-12-17T21:24:34.009Z,67.15
2022-12-17T21:27:02.405Z,86.43
2022-12-17T21:29:30.800Z,66.05
2022-12-17T21:31:59.227Z,65.05
2022-12-17T21:34:29.219Z,70.93
2022-12-17T21:36:57.716Z,77.13
2022-12-17T21:39:26.108Z,63.53
2022-12-17T21:42:13.191Z,67.78
2022-12-17T21:44:41.651Z,79.88
2022-12-17T21:47:10.339Z,65.20
2022-12-17T21:49:38.818Z,62.65
2022-12-17T21:52:07.455Z,66.07
2022-12-17T21:54:37.903Z,66.55
2022-12-17T21:57:06.813Z,80.40
2022-12-17T21:59:35.493Z,94.38
2022-12-17T22:02:04.078Z,86.22
2022-12-17T22:04:32.686Z,61.67
2022-12-17T22:07:06.175Z,70.90
2022-12-17T22:09:47.790Z,76.50
2022-12-17T22:12:37.755Z,65.05
2022-12-17T22:15:08.561Z,60.53
2022-12-17T22:17:38.082Z,71.57
2022-12-17T22:20:07.146Z,64.15
2022-12-17T22:22:35.668Z,60.00
2022-12-17T22:25:09.001Z,73.25
2022-12-17T22:27:40.685Z,59.47
2022-12-17T22:30:33.321Z,80.35
2022-12-17T22:33:06.887Z,67.93
2022-12-17T22:38:04.744Z,75.10
2022-12-17T22:43:13.481Z,67.72
2022-12-17T22:44:34.403Z,88.78
2022-12-17T22:44:46.141Z,76.60
2022-12-17T22:47:16.973Z,71.05
2022-12-17T22:49:45.359Z,65.15
2022-12-17T22:52:14.110Z,74.45
2022-12-17T22:54:44.885Z,67.05
2022-12-17T22:57:35.158Z,61.80
2022-12-17T23:00:02.336Z,60.15
2022-12-17T23:02:30.817Z,59.55
2022-12-17T23:04:59.357Z,58.10
2022-12-17T23:07:31.772Z,51.78
2022-12-17T23:10:00.579Z,53.40
2022-12-17T23:12:47.649Z,59.38
2022-12-17T23:15:17.129Z,51.35
2022-12-17T23:17:45.779Z,42.47
2022-12-17T23:20:15.347Z,53.65
2022-12-17T23:22:44.044Z,49.60
2022-12-17T23:25:13.379Z,63.65
2022-12-17T23:27:45.530Z,41.38
2022-12-17T23:32:43.604Z,53.70
2022-12-17T23:35:13.314Z,49.35
2022-12-17T23:37:42.276Z,49.88
2022-12-17T23:40:12.460Z,46.33
2022-12-17T23:42:41.158Z,55.55
2022-12-17T23:45:11.967Z,49.63
2022-12-17T23:47:41.087Z,60.40
2022-12-17T23:50:11.459Z,54.92
2022-12-17T23:52:40.047Z,59.30
2022-12-17T23:55:08.858Z,72.25
2022-12-17T23:57:37.754Z,94.05
